sensor_id;sensor_type;location;lat;lon;timestamp;P1;durP1;ratioP1;P2;durP2;ratioP2
29382;SDS011;16365;51.598;7.668;2022-08-02T00:01:31;10.48;;;3.50;;
29382;SDS011;16365;51.598;7.668;2022-08-02T00:03:57;7.75;;;3.25;;
29382;SDS011;16365;51.598;7.668;2022-08-02T00:06:24;7.50;;;2.92;;
29382;SDS011;16365;51.598;7.668;2022-08-02T00:08:50;6.82;;;3.20;;
29382;SDS011;16365;51.598;7.668;2022-08-02T00:11:19;9.80;;;3.42;;
29382;SDS011;16365;51.598;7.668;2022-08-02T00:13:45;7.30;;;3.85;;
29382;SDS011;16365;51.598;7.668;2022-08-02T00:16:12;8.43;;;4.15;;
29382;SDS011;16365;51.598;7.668;2022-08-02T00:18:42;13.80;;;4.43;;
29382;SDS011;16365;51.598;7.668;2022-08-02T00:21:09;6.22;;;3.67;;
29382;SDS011;16365;51.598;7.668;2022-08-02T00:23:36;11.57;;;4.35;;
29382;SDS011;16365;51.598;7.668;2022-08-02T00:26:23;8.50;;;3.67;;
29382;SDS011;16365;51.598;7.668;2022-08-02T00:28:49;6.95;;;4.00;;
29382;SDS011;16365;51.598;7.668;2022-08-02T00:31:16;7.07;;;3.85;;
29382;SDS011;16365;51.598;7.668;2022-08-02T00:33:42;11.02;;;4.50;;
29382;SDS011;16365;51.598;7.668;2022-08-02T00:36:29;9.10;;;4.32;;
29382;SDS011;16365;51.598;7.668;2022-08-02T00:38:56;10.48;;;5.93;;
29382;SDS011;16365;51.598;7.668;2022-08-02T00:41:22;13.45;;;7.13;;
29382;SDS011;16365;51.598;7.668;2022-08-02T00:43:49;15.07;;;5.82;;
29382;SDS011;16365;51.598;7.668;2022-08-02T00:46:17;10.95;;;5.75;;
29382;SDS011;16365;51.598;7.668;2022-08-02T00:48:46;9.90;;;6.20;;
29382;SDS011;16365;51.598;7.668;2022-08-02T00:51:15;11.50;;;6.63;;
29382;SDS011;16365;51.598;7.668;2022-08-02T00:53:42;9.50;;;6.10;;
29382;SDS011;16365;51.598;7.668;2022-08-02T00:56:08;10.00;;;7.13;;
29382;SDS011;16365;51.598;7.668;2022-08-02T00:58:36;11.10;;;6.93;;
29382;SDS011;16365;51.598;7.668;2022-08-02T01:01:02;14.50;;;6.95;;
29382;SDS011;16365;51.598;7.668;2022-08-02T01:03:29;11.77;;;7.38;;
29382;SDS011;16365;51.598;7.668;2022-08-02T01:05:55;13.20;;;7.68;;
29382;SDS011;16365;51.598;7.668;2022-08-02T01:08:37;13.05;;;7.93;;
29382;SDS011;16365;51.598;7.668;2022-08-02T01:13:31;18.80;;;10.77;;
29382;SDS011;16365;51.598;7.668;2022-08-02T01:15:59;15.00;;;10.27;;
29382;SDS011;16365;51.598;7.668;2022-08-02T01:18:30;12.57;;;10.20;;
29382;SDS011;16365;51.598;7.668;2022-08-02T01:21:13;13.80;;;9.75;;
29382;SDS011;16365;51.598;7.668;2022-08-02T01:26:46;21.80;;;10.63;;
29382;SDS011;16365;51.598;7.668;2022-08-02T01:29:24;15.70;;;10.50;;
29382;SDS011;16365;51.598;7.668;2022-08-02T01:32:04;17.02;;;9.55;;
29382;SDS011;16365;51.598;7.668;2022-08-02T01:34:40;11.32;;;8.27;;
29382;SDS011;16365;51.598;7.668;2022-08-02T01:39:49;18.85;;;9.82;;
29382;SDS011;16365;51.598;7.668;2022-08-02T01:42:21;16.58;;;9.82;;
29382;SDS011;16365;51.598;7.668;2022-08-02T01:44:51;14.88;;;8.70;;
29382;SDS011;16365;51.598;7.668;2022-08-02T01:47:23;16.60;;;10.15;;
29382;SDS011;16365;51.598;7.668;2022-08-02T01:49:53;14.32;;;9.65;;
29382;SDS011;16365;51.598;7.668;2022-08-02T01:52:24;11.50;;;8.57;;
29382;SDS011;16365;51.598;7.668;2022-08-02T01:55:03;15.88;;;8.65;;
29382;SDS011;16365;51.598;7.668;2022-08-02T01:57:45;12.27;;;8.65;;
29382;SDS011;16365;51.598;7.668;2022-08-02T02:00:15;14.13;;;8.27;;
29382;SDS011;16365;51.598;7.668;2022-08-02T02:02:44;17.55;;;9.23;;
29382;SDS011;16365;51.598;7.668;2022-08-02T02:05:13;13.55;;;8.30;;
29382;SDS011;16365;51.598;7.668;2022-08-02T02:07:44;13.40;;;8.30;;
29382;SDS011;16365;51.598;7.668;2022-08-02T02:10:14;11.50;;;8.05;;
29382;SDS011;16365;51.598;7.668;2022-08-02T02:12:45;12.25;;;7.97;;
29382;SDS011;16365;51.598;7.668;2022-08-02T02:15:15;13.43;;;7.82;;
29382;SDS011;16365;51.598;7.668;2022-08-02T02:17:43;13.60;;;8.10;;
29382;SDS011;16365;51.598;7.668;2022-08-02T02:20:31;12.95;;;7.63;;
29382;SDS011;16365;51.598;7.668;2022-08-02T02:22:58;12.52;;;7.90;;
29382;SDS011;16365;51.598;7.668;2022-08-02T02:25:25;12.90;;;7.57;;
29382;SDS011;16365;51.598;7.668;2022-08-02T02:28:26;11.88;;;7.45;;
29382;SDS011;16365;51.598;7.668;2022-08-02T02:31:11;13.15;;;8.40;;
29382;SDS011;16365;51.598;7.668;2022-08-02T02:33:53;14.13;;;8.65;;
29382;SDS011;16365;51.598;7.668;2022-08-02T02:36:27;17.02;;;9.70;;
29382;SDS011;16365;51.598;7.668;2022-08-02T02:38:56;15.85;;;10.27;;
29382;SDS011;16365;51.598;7.668;2022-08-02T02:41:24;16.85;;;10.23;;
29382;SDS011;16365;51.598;7.668;2022-08-02T02:43:54;18.17;;;9.32;;
29382;SDS011;16365;51.598;7.668;2022-08-02T02:46:23;15.05;;;8.23;;
29382;SDS011;16365;51.598;7.668;2022-08-02T02:48:52;12.95;;;8.43;;
29382;SDS011;16365;51.598;7.668;2022-08-02T02:51:19;14.10;;;8.53;;
29382;SDS011;16365;51.598;7.668;2022-08-02T02:53:47;14.23;;;9.10;;
29382;SDS011;16365;51.598;7.668;2022-08-02T02:56:38;14.93;;;8.27;;
29382;SDS011;16365;51.598;7.668;2022-08-02T02:59:08;9.77;;;7.43;;
29382;SDS011;16365;51.598;7.668;2022-08-02T03:01:35;11.27;;;7.70;;
29382;SDS011;16365;51.598;7.668;2022-08-02T03:04:22;17.10;;;8.98;;
29382;SDS011;16365;51.598;7.668;2022-08-02T03:06:50;13.73;;;8.48;;
29382;SDS011;16365;51.598;7.668;2022-08-02T03:09:16;13.80;;;8.07;;
29382;SDS011;16365;51.598;7.668;2022-08-02T03:11:43;16.13;;;9.15;;
29382;SDS011;16365;51.598;7.668;2022-08-02T03:14:11;15.45;;;8.80;;
29382;SDS011;16365;51.598;7.668;2022-08-02T03:16:42;10.60;;;7.47;;
29382;SDS011;16365;51.598;7.668;2022-08-02T03:19:12;11.23;;;7.38;;
29382;SDS011;16365;51.598;7.668;2022-08-02T03:21:40;14.40;;;7.70;;
29382;SDS011;16365;51.598;7.668;2022-08-02T03:24:08;12.35;;;8.05;;
29382;SDS011;16365;51.598;7.668;2022-08-02T03:26:35;13.45;;;7.80;;
29382;SDS011;16365;51.598;7.668;2022-08-02T03:29:02;10.50;;;7.18;;
29382;SDS011;16365;51.598;7.668;2022-08-02T03:31:36;11.57;;;6.78;;
29382;SDS011;16365;51.598;7.668;2022-08-02T03:34:05;13.05;;;6.78;;
29382;SDS011;16365;51.598;7.668;2022-08-02T03:36:33;11.38;;;6.97;;
29382;SDS011;16365;51.598;7.668;2022-08-02T03:39:02;10.32;;;6.30;;
29382;SDS011;16365;51.598;7.668;2022-08-02T03:41:30;15.57;;;6.57;;
29382;SDS011;16365;51.598;7.668;2022-08-02T03:43:58;11.93;;;6.63;;
29382;SDS011;16365;51.598;7.668;2022-08-02T03:46:25;9.03;;;5.90;;
29382;SDS011;16365;51.598;7.668;2022-08-02T03:48:53;9.45;;;5.65;;
29382;SDS011;16365;51.598;7.668;2022-08-02T03:51:21;9.48;;;6.30;;
29382;SDS011;16365;51.598;7.668;2022-08-02T03:53:48;8.18;;;5.45;;
29382;SDS011;16365;51.598;7.668;2022-08-02T03:56:15;9.07;;;5.25;;
29382;SDS011;16365;51.598;7.668;2022-08-02T03:58:42;12.13;;;5.65;;
29382;SDS011;16365;51.598;7.668;2022-08-02T04:01:14;10.50;;;5.80;;
29382;SDS011;16365;51.598;7.668;2022-08-02T04:03:41;8.23;;;5.75;;
29382;SDS011;16365;51.598;7.668;2022-08-02T04:06:08;10.05;;;5.55;;
29382;SDS011;16365;51.598;7.668;2022-08-02T04:08:34;9.40;;;5.50;;
29382;SDS011;16365;51.598;7.668;2022-08-02T04:11:04;11.63;;;5.93;;
29382;SDS011;16365;51.598;7.668;2022-08-02T04:13:50;10.15;;;5.80;;
29382;SDS011;16365;51.598;7.668;2022-08-02T04:16:27;10.00;;;5.55;;
29382;SDS011;16365;51.598;7.668;2022-08-02T04:19:00;6.43;;;4.85;;
29382;SDS011;16365;51.598;7.668;2022-08-02T04:21:33;10.38;;;5.47;;
29382;SDS011;16365;51.598;7.668;2022-08-02T04:24:15;10.85;;;4.70;;
29382;SDS011;16365;51.598;7.668;2022-08-02T04:26:44;14.00;;;5.00;;
29382;SDS011;16365;51.598;7.668;2022-08-02T04:29:15;8.68;;;5.22;;
29382;SDS011;16365;51.598;7.668;2022-08-02T04:31:43;8.65;;;5.25;;
29382;SDS011;16365;51.598;7.668;2022-08-02T04:34:11;7.40;;;4.97;;
29382;SDS011;16365;51.598;7.668;2022-08-02T04:36:40;10.43;;;5.32;;
29382;SDS011;16365;51.598;7.668;2022-08-02T04:39:08;6.53;;;4.68;;
29382;SDS011;16365;51.598;7.668;2022-08-02T04:41:39;16.17;;;5.40;;
29382;SDS011;16365;51.598;7.668;2022-08-02T04:44:10;7.75;;;4.90;;
29382;SDS011;16365;51.598;7.668;2022-08-02T04:46:38;8.25;;;5.45;;
29382;SDS011;16365;51.598;7.668;2022-08-02T04:49:06;7.28;;;5.05;;
29382;SDS011;16365;51.598;7.668;2022-08-02T04:51:34;12.10;;;5.43;;
29382;SDS011;16365;51.598;7.668;2022-08-02T04:54:04;15.25;;;6.20;;
29382;SDS011;16365;51.598;7.668;2022-08-02T04:56:35;8.98;;;5.63;;
29382;SDS011;16365;51.598;7.668;2022-08-02T04:59:03;8.05;;;5.45;;
29382;SDS011;16365;51.598;7.668;2022-08-02T05:01:31;7.60;;;5.32;;
29382;SDS011;16365;51.598;7.668;2022-08-02T05:03:57;11.35;;;5.88;;
29382;SDS011;16365;51.598;7.668;2022-08-02T05:06:24;12.57;;;5.82;;
29382;SDS011;16365;51.598;7.668;2022-08-02T05:08:50;8.00;;;6.18;;
29382;SDS011;16365;51.598;7.668;2022-08-02T05:11:19;10.27;;;6.25;;
29382;SDS011;16365;51.598;7.668;2022-08-02T05:13:47;10.10;;;6.30;;
29382;SDS011;16365;51.598;7.668;2022-08-02T05:16:23;9.82;;;5.63;;
29382;SDS011;16365;51.598;7.668;2022-08-02T05:18:57;11.55;;;5.72;;
29382;SDS011;16365;51.598;7.668;2022-08-02T05:21:24;11.47;;;6.33;;
29382;SDS011;16365;51.598;7.668;2022-08-02T05:23:51;8.23;;;5.60;;
29382;SDS011;16365;51.598;7.668;2022-08-02T05:26:17;15.18;;;5.90;;
29382;SDS011;16365;51.598;7.668;2022-08-02T05:28:44;11.07;;;6.40;;
29382;SDS011;16365;51.598;7.668;2022-08-02T05:31:11;12.85;;;6.70;;
29382;SDS011;16365;51.598;7.668;2022-08-02T05:33:38;8.93;;;6.17;;
29382;SDS011;16365;51.598;7.668;2022-08-02T05:36:05;8.23;;;5.53;;
29382;SDS011;16365;51.598;7.668;2022-08-02T05:38:34;11.40;;;5.88;;
29382;SDS011;16365;51.598;7.668;2022-08-02T05:41:02;11.60;;;6.53;;
29382;SDS011;16365;51.598;7.668;2022-08-02T05:43:29;12.60;;;6.30;;
29382;SDS011;16365;51.598;7.668;2022-08-02T05:45:56;9.82;;;6.28;;
29382;SDS011;16365;51.598;7.668;2022-08-02T05:48:23;8.57;;;6.45;;
29382;SDS011;16365;51.598;7.668;2022-08-02T05:51:02;9.05;;;6.38;;
29382;SDS011;16365;51.598;7.668;2022-08-02T05:56:23;11.63;;;6.47;;
29382;SDS011;16365;51.598;7.668;2022-08-02T06:01:37;14.57;;;6.32;;
29382;SDS011;16365;51.598;7.668;2022-08-02T06:04:06;11.98;;;6.13;;
29382;SDS011;16365;51.598;7.668;2022-08-02T06:06:35;10.00;;;6.05;;
29382;SDS011;16365;51.598;7.668;2022-08-02T06:09:07;14.10;;;6.45;;
29382;SDS011;16365;51.598;7.668;2022-08-02T06:11:37;8.57;;;5.68;;
29382;SDS011;16365;51.598;7.668;2022-08-02T06:14:32;11.43;;;5.60;;
29382;SDS011;16365;51.598;7.668;2022-08-02T06:17:05;10.27;;;5.65;;
29382;SDS011;16365;51.598;7.668;2022-08-02T06:19:32;9.35;;;5.20;;
29382;SDS011;16365;51.598;7.668;2022-08-02T06:22:17;7.22;;;5.30;;
29382;SDS011;16365;51.598;7.668;2022-08-02T06:25:02;8.25;;;5.25;;
29382;SDS011;16365;51.598;7.668;2022-08-02T06:27:29;11.87;;;5.57;;
29382;SDS011;16365;51.598;7.668;2022-08-02T06:29:56;10.00;;;6.05;;
29382;SDS011;16365;51.598;7.668;2022-08-02T06:32:23;9.05;;;5.57;;
29382;SDS011;16365;51.598;7.668;2022-08-02T06:34:52;10.30;;;5.55;;
29382;SDS011;16365;51.598;7.668;2022-08-02T06:37:26;8.73;;;5.60;;
29382;SDS011;16365;51.598;7.668;2022-08-02T06:39:58;13.30;;;5.82;;
29382;SDS011;16365;51.598;7.668;2022-08-02T06:42:32;9.18;;;5.30;;
29382;SDS011;16365;51.598;7.668;2022-08-02T06:45:07;11.40;;;5.30;;
29382;SDS011;16365;51.598;7.668;2022-08-02T06:47:33;10.02;;;5.00;;
29382;SDS011;16365;51.598;7.668;2022-08-02T06:50:00;9.40;;;5.10;;
29382;SDS011;16365;51.598;7.668;2022-08-02T06:52:28;13.68;;;5.82;;
29382;SDS011;16365;51.598;7.668;2022-08-02T06:55:00;8.30;;;5.28;;
29382;SDS011;16365;51.598;7.668;2022-08-02T06:57:28;12.38;;;4.95;;
29382;SDS011;16365;51.598;7.668;2022-08-02T06:59:55;13.65;;;4.35;;
29382;SDS011;16365;51.598;7.668;2022-08-02T07:02:23;13.63;;;4.80;;
29382;SDS011;16365;51.598;7.668;2022-08-02T07:04:50;9.45;;;5.13;;
29382;SDS011;16365;51.598;7.668;2022-08-02T07:07:16;10.52;;;5.38;;
29382;SDS011;16365;51.598;7.668;2022-08-02T07:09:43;9.95;;;5.28;;
29382;SDS011;16365;51.598;7.668;2022-08-02T07:12:26;8.80;;;4.90;;
29382;SDS011;16365;51.598;7.668;2022-08-02T07:14:57;9.73;;;4.70;;
29382;SDS011;16365;51.598;7.668;2022-08-02T07:17:28;11.68;;;5.25;;
29382;SDS011;16365;51.598;7.668;2022-08-02T07:19:55;12.20;;;5.25;;
29382;SDS011;16365;51.598;7.668;2022-08-02T07:22:22;11.83;;;4.60;;
29382;SDS011;16365;51.598;7.668;2022-08-02T07:24:51;8.35;;;4.65;;
29382;SDS011;16365;51.598;7.668;2022-08-02T07:27:19;10.47;;;5.07;;
29382;SDS011;16365;51.598;7.668;2022-08-02T07:29:46;12.70;;;5.53;;
29382;SDS011;16365;51.598;7.668;2022-08-02T07:32:16;9.65;;;4.93;;
29382;SDS011;16365;51.598;7.668;2022-08-02T07:34:44;13.85;;;4.85;;
29382;SDS011;16365;51.598;7.668;2022-08-02T07:37:24;10.18;;;4.20;;
29382;SDS011;16365;51.598;7.668;2022-08-02T07:40:08;9.98;;;4.10;;
29382;SDS011;16365;51.598;7.668;2022-08-02T07:42:43;11.00;;;4.40;;
29382;SDS011;16365;51.598;7.668;2022-08-02T07:45:10;7.50;;;3.47;;
29382;SDS011;16365;51.598;7.668;2022-08-02T07:47:39;4.35;;;3.15;;
29382;SDS011;16365;51.598;7.668;2022-08-02T07:50:07;5.55;;;3.10;;
29382;SDS011;16365;51.598;7.668;2022-08-02T07:52:37;9.77;;;3.45;;
29382;SDS011;16365;51.598;7.668;2022-08-02T07:55:04;5.63;;;3.28;;
29382;SDS011;16365;51.598;7.668;2022-08-02T07:57:31;5.05;;;2.67;;
29382;SDS011;16365;51.598;7.668;2022-08-02T07:59:59;7.80;;;2.60;;
29382;SDS011;16365;51.598;7.668;2022-08-02T08:02:26;5.57;;;2.80;;
29382;SDS011;16365;51.598;7.668;2022-08-02T08:04:56;6.85;;;2.60;;
29382;SDS011;16365;51.598;7.668;2022-08-02T08:07:32;5.28;;;2.33;;
29382;SDS011;16365;51.598;7.668;2022-08-02T08:09:59;7.15;;;2.47;;
29382;SDS011;16365;51.598;7.668;2022-08-02T08:12:26;4.85;;;2.53;;
29382;SDS011;16365;51.598;7.668;2022-08-02T08:14:52;6.47;;;2.35;;
29382;SDS011;16365;51.598;7.668;2022-08-02T08:17:19;3.75;;;2.20;;
29382;SDS011;16365;51.598;7.668;2022-08-02T08:19:46;6.45;;;2.28;;
29382;SDS011;16365;51.598;7.668;2022-08-02T08:22:16;5.13;;;1.95;;
29382;SDS011;16365;51.598;7.668;2022-08-02T08:24:43;5.57;;;1.70;;
29382;SDS011;16365;51.598;7.668;2022-08-02T08:27:10;5.53;;;1.60;;
29382;SDS011;16365;51.598;7.668;2022-08-02T08:29:40;2.50;;;1.60;;
29382;SDS011;16365;51.598;7.668;2022-08-02T08:32:08;3.42;;;2.10;;
29382;SDS011;16365;51.598;7.668;2022-08-02T08:34:41;1.70;;;1.27;;
29382;SDS011;16365;51.598;7.668;2022-08-02T08:37:08;6.38;;;1.33;;
29382;SDS011;16365;51.598;7.668;2022-08-02T08:39:42;5.32;;;1.83;;
29382;SDS011;16365;51.598;7.668;2022-08-02T08:42:23;4.75;;;1.83;;
29382;SDS011;16365;51.598;7.668;2022-08-02T08:44:54;7.85;;;1.50;;
29382;SDS011;16365;51.598;7.668;2022-08-02T08:47:22;2.55;;;1.67;;
29382;SDS011;16365;51.598;7.668;2022-08-02T08:49:50;7.13;;;1.20;;
29382;SDS011;16365;51.598;7.668;2022-08-02T08:52:20;2.13;;;1.20;;
29382;SDS011;16365;51.598;7.668;2022-08-02T08:54:50;3.08;;;1.25;;
29382;SDS011;16365;51.598;7.668;2022-08-02T08:57:18;3.97;;;1.33;;
29382;SDS011;16365;51.598;7.668;2022-08-02T08:59:46;4.00;;;1.27;;
29382;SDS011;16365;51.598;7.668;2022-08-02T09:02:13;1.83;;;1.00;;
29382;SDS011;16365;51.598;7.668;2022-08-02T09:04:47;3.33;;;1.40;;
29382;SDS011;16365;51.598;7.668;2022-08-02T09:07:20;2.40;;;1.20;;
29382;SDS011;16365;51.598;7.668;2022-08-02T09:09:48;5.05;;;1.20;;
29382;SDS011;16365;51.598;7.668;2022-08-02T09:12:15;1.40;;;0.95;;
29382;SDS011;16365;51.598;7.668;2022-08-02T09:14:43;2.20;;;1.15;;
29382;SDS011;16365;51.598;7.668;2022-08-02T09:17:15;6.28;;;1.30;;
29382;SDS011;16365;51.598;7.668;2022-08-02T09:19:43;2.00;;;1.38;;
29382;SDS011;16365;51.598;7.668;2022-08-02T09:22:12;2.85;;;1.15;;
29382;SDS011;16365;51.598;7.668;2022-08-02T09:27:14;2.60;;;1.20;;
29382;SDS011;16365;51.598;7.668;2022-08-02T09:29:46;2.33;;;1.33;;
29382;SDS011;16365;51.598;7.668;2022-08-02T09:32:44;2.92;;;1.40;;
29382;SDS011;16365;51.598;7.668;2022-08-02T09:35:12;2.55;;;1.23;;
29382;SDS011;16365;51.598;7.668;2022-08-02T09:40:09;1.52;;;1.20;;
29382;SDS011;16365;51.598;7.668;2022-08-02T09:42:37;3.00;;;1.55;;
29382;SDS011;16365;51.598;7.668;2022-08-02T09:45:28;3.30;;;1.58;;
29382;SDS011;16365;51.598;7.668;2022-08-02T09:47:56;3.78;;;1.50;;
29382;SDS011;16365;51.598;7.668;2022-08-02T09:50:23;2.42;;;1.42;;
29382;SDS011;16365;51.598;7.668;2022-08-02T09:52:49;2.63;;;1.58;;
29382;SDS011;16365;51.598;7.668;2022-08-02T09:55:16;6.00;;;1.70;;
29382;SDS011;16365;51.598;7.668;2022-08-02T09:57:43;4.28;;;1.95;;
29382;SDS011;16365;51.598;7.668;2022-08-02T10:00:16;3.92;;;1.80;;
29382;SDS011;16365;51.598;7.668;2022-08-02T10:03:04;4.00;;;2.20;;
29382;SDS011;16365;51.598;7.668;2022-08-02T10:05:44;3.50;;;1.67;;
29382;SDS011;16365;51.598;7.668;2022-08-02T10:08:28;5.22;;;1.70;;
29382;SDS011;16365;51.598;7.668;2022-08-02T10:10:58;2.85;;;1.90;;
29382;SDS011;16365;51.598;7.668;2022-08-02T10:13:35;2.87;;;1.90;;
29382;SDS011;16365;51.598;7.668;2022-08-02T10:16:02;2.45;;;1.40;;
29382;SDS011;16365;51.598;7.668;2022-08-02T10:18:31;3.53;;;1.63;;
29382;SDS011;16365;51.598;7.668;2022-08-02T10:21:05;3.13;;;1.95;;
29382;SDS011;16365;51.598;7.668;2022-08-02T10:23:37;3.80;;;1.60;;
29382;SDS011;16365;51.598;7.668;2022-08-02T10:26:05;3.47;;;1.60;;
29382;SDS011;16365;51.598;7.668;2022-08-02T10:28:34;3.35;;;1.98;;
29382;SDS011;16365;51.598;7.668;2022-08-02T10:31:02;2.65;;;1.67;;
29382;SDS011;16365;51.598;7.668;2022-08-02T10:33:31;2.60;;;1.40;;
29382;SDS011;16365;51.598;7.668;2022-08-02T10:36:01;2.03;;;1.48;;
29382;SDS011;16365;51.598;7.668;2022-08-02T10:38:33;8.85;;;1.75;;
29382;SDS011;16365;51.598;7.668;2022-08-02T10:41:00;2.25;;;1.60;;
29382;SDS011;16365;51.598;7.668;2022-08-02T10:49:06;2.88;;;2.10;;
29382;SDS011;16365;51.598;7.668;2022-08-02T10:54:20;4.13;;;1.70;;
29382;SDS011;16365;51.598;7.668;2022-08-02T10:56:50;4.20;;;1.70;;
29382;SDS011;16365;51.598;7.668;2022-08-02T11:01:57;3.42;;;1.90;;
29382;SDS011;16365;51.598;7.668;2022-08-02T11:07:19;2.72;;;2.00;;
29382;SDS011;16365;51.598;7.668;2022-08-02T11:09:56;3.58;;;1.85;;
29382;SDS011;16365;51.598;7.668;2022-08-02T11:12:24;1.70;;;1.60;;
29382;SDS011;16365;51.598;7.668;2022-08-02T11:17:26;4.60;;;1.90;;
29382;SDS011;16365;51.598;7.668;2022-08-02T11:22:36;5.63;;;2.30;;
29382;SDS011;16365;51.598;7.668;2022-08-02T11:27:55;5.70;;;2.22;;
29382;SDS011;16365;51.598;7.668;2022-08-02T11:30:23;2.42;;;1.90;;
29382;SDS011;16365;51.598;7.668;2022-08-02T11:32:56;2.55;;;1.70;;
29382;SDS011;16365;51.598;7.668;2022-08-02T11:35:36;2.85;;;2.25;;
29382;SDS011;16365;51.598;7.668;2022-08-02T11:38:25;5.15;;;2.80;;
29382;SDS011;16365;51.598;7.668;2022-08-02T11:40:52;4.93;;;2.30;;
29382;SDS011;16365;51.598;7.668;2022-08-02T11:43:24;3.78;;;2.33;;
29382;SDS011;16365;51.598;7.668;2022-08-02T11:45:56;2.35;;;1.77;;
29382;SDS011;16365;51.598;7.668;2022-08-02T11:48:34;3.40;;;2.50;;
29382;SDS011;16365;51.598;7.668;2022-08-02T11:51:06;4.90;;;1.80;;
29382;SDS011;16365;51.598;7.668;2022-08-02T11:53:50;2.63;;;1.98;;
29382;SDS011;16365;51.598;7.668;2022-08-02T11:56:26;5.68;;;1.98;;
29382;SDS011;16365;51.598;7.668;2022-08-02T11:59:07;4.10;;;2.10;;
29382;SDS011;16365;51.598;7.668;2022-08-02T12:01:39;7.38;;;2.20;;
29382;SDS011;16365;51.598;7.668;2022-08-02T12:04:14;2.63;;;1.98;;
29382;SDS011;16365;51.598;7.668;2022-08-02T12:06:57;4.57;;;2.03;;
29382;SDS011;16365;51.598;7.668;2022-08-02T12:09:26;2.53;;;1.90;;
29382;SDS011;16365;51.598;7.668;2022-08-02T12:11:54;4.75;;;2.22;;
29382;SDS011;16365;51.598;7.668;2022-08-02T12:14:22;3.17;;;2.25;;
29382;SDS011;16365;51.598;7.668;2022-08-02T12:16:50;6.20;;;2.40;;
29382;SDS011;16365;51.598;7.668;2022-08-02T12:19:36;6.30;;;2.33;;
29382;SDS011;16365;51.598;7.668;2022-08-02T12:24:43;4.35;;;2.17;;
29382;SDS011;16365;51.598;7.668;2022-08-02T12:27:33;7.68;;;2.47;;
29382;SDS011;16365;51.598;7.668;2022-08-02T12:30:04;3.90;;;2.45;;
29382;SDS011;16365;51.598;7.668;2022-08-02T12:32:35;4.38;;;2.90;;
29382;SDS011;16365;51.598;7.668;2022-08-02T12:37:34;5.65;;;2.90;;
29382;SDS011;16365;51.598;7.668;2022-08-02T12:42:58;4.30;;;2.40;;
29382;SDS011;16365;51.598;7.668;2022-08-02T12:45:47;4.25;;;2.53;;
29382;SDS011;16365;51.598;7.668;2022-08-02T12:48:33;3.45;;;2.20;;
29382;SDS011;16365;51.598;7.668;2022-08-02T12:54:16;3.13;;;2.70;;
29382;SDS011;16365;51.598;7.668;2022-08-02T12:56:55;7.40;;;2.70;;
29382;SDS011;16365;51.598;7.668;2022-08-02T12:59:33;5.35;;;2.60;;
29382;SDS011;16365;51.598;7.668;2022-08-02T13:02:05;4.18;;;2.70;;
29382;SDS011;16365;51.598;7.668;2022-08-02T13:04:33;4.15;;;2.58;;
29382;SDS011;16365;51.598;7.668;2022-08-02T13:07:00;6.60;;;2.72;;
29382;SDS011;16365;51.598;7.668;2022-08-02T13:09:27;4.82;;;2.30;;
29382;SDS011;16365;51.598;7.668;2022-08-02T13:11:54;3.30;;;2.53;;
29382;SDS011;16365;51.598;7.668;2022-08-02T13:14:21;4.28;;;2.42;;
29382;SDS011;16365;51.598;7.668;2022-08-02T13:16:47;5.32;;;2.72;;
29382;SDS011;16365;51.598;7.668;2022-08-02T13:19:14;2.85;;;2.45;;
29382;SDS011;16365;51.598;7.668;2022-08-02T13:21:41;4.47;;;2.55;;
29382;SDS011;16365;51.598;7.668;2022-08-02T13:24:28;4.47;;;2.30;;
29382;SDS011;16365;51.598;7.668;2022-08-02T13:27:14;5.60;;;2.80;;
29382;SDS011;16365;51.598;7.668;2022-08-02T13:29:41;3.47;;;2.50;;
29382;SDS011;16365;51.598;7.668;2022-08-02T13:32:08;6.20;;;2.90;;
29382;SDS011;16365;51.598;7.668;2022-08-02T13:34:35;4.00;;;2.67;;
29382;SDS011;16365;51.598;7.668;2022-08-02T13:37:02;4.70;;;2.60;;
29382;SDS011;16365;51.598;7.668;2022-08-02T13:39:29;10.95;;;2.50;;
29382;SDS011;16365;51.598;7.668;2022-08-02T13:41:55;3.47;;;2.10;;
29382;SDS011;16365;51.598;7.668;2022-08-02T13:44:22;7.18;;;2.20;;
29382;SDS011;16365;51.598;7.668;2022-08-02T13:46:48;6.38;;;2.50;;
29382;SDS011;16365;51.598;7.668;2022-08-02T13:49:16;2.95;;;2.40;;
29382;SDS011;16365;51.598;7.668;2022-08-02T13:51:48;4.07;;;2.20;;
29382;SDS011;16365;51.598;7.668;2022-08-02T13:54:15;3.97;;;1.98;;
29382;SDS011;16365;51.598;7.668;2022-08-02T13:56:42;4.32;;;2.10;;
29382;SDS011;16365;51.598;7.668;2022-08-02T13:59:09;3.72;;;1.95;;
29382;SDS011;16365;51.598;7.668;2022-08-02T14:01:55;4.85;;;2.30;;
29382;SDS011;16365;51.598;7.668;2022-08-02T14:04:24;5.22;;;2.40;;
29382;SDS011;16365;51.598;7.668;2022-08-02T14:06:51;5.93;;;2.22;;
29382;SDS011;16365;51.598;7.668;2022-08-02T14:09:18;3.22;;;1.90;;
29382;SDS011;16365;51.598;7.668;2022-08-02T14:11:45;5.22;;;1.90;;
29382;SDS011;16365;51.598;7.668;2022-08-02T14:14:12;2.65;;;1.80;;
29382;SDS011;16365;51.598;7.668;2022-08-02T14:16:42;5.82;;;2.08;;
29382;SDS011;16365;51.598;7.668;2022-08-02T14:19:09;2.00;;;1.63;;
29382;SDS011;16365;51.598;7.668;2022-08-02T14:21:45;2.53;;;2.05;;
29382;SDS011;16365;51.598;7.668;2022-08-02T14:24:14;4.05;;;1.90;;
29382;SDS011;16365;51.598;7.668;2022-08-02T14:26:42;2.13;;;1.85;;
29382;SDS011;16365;51.598;7.668;2022-08-02T14:29:11;3.28;;;1.95;;
29382;SDS011;16365;51.598;7.668;2022-08-02T14:31:38;4.20;;;2.08;;
29382;SDS011;16365;51.598;7.668;2022-08-02T14:34:10;2.45;;;1.85;;
29382;SDS011;16365;51.598;7.668;2022-08-02T14:36:39;5.85;;;2.00;;
29382;SDS011;16365;51.598;7.668;2022-08-02T14:39:06;3.30;;;1.63;;
29382;SDS011;16365;51.598;7.668;2022-08-02T14:41:33;2.53;;;2.08;;
29382;SDS011;16365;51.598;7.668;2022-08-02T14:44:22;9.00;;;2.00;;
29382;SDS011;16365;51.598;7.668;2022-08-02T14:46:48;2.55;;;1.95;;
29382;SDS011;16365;51.598;7.668;2022-08-02T14:49:17;6.18;;;2.13;;
29382;SDS011;16365;51.598;7.668;2022-08-02T14:51:51;2.22;;;1.83;;
29382;SDS011;16365;51.598;7.668;2022-08-02T14:54:21;2.65;;;1.90;;
29382;SDS011;16365;51.598;7.668;2022-08-02T14:56:55;6.57;;;1.92;;
29382;SDS011;16365;51.598;7.668;2022-08-02T14:59:23;3.42;;;1.83;;
29382;SDS011;16365;51.598;7.668;2022-08-02T15:01:50;3.20;;;1.77;;
29382;SDS011;16365;51.598;7.668;2022-08-02T15:04:16;3.88;;;1.77;;
29382;SDS011;16365;51.598;7.668;2022-08-02T15:06:43;5.97;;;1.90;;
29382;SDS011;16365;51.598;7.668;2022-08-02T15:09:10;6.25;;;1.98;;
29382;SDS011;16365;51.598;7.668;2022-08-02T15:14:14;10.23;;;1.95;;
29382;SDS011;16365;51.598;7.668;2022-08-02T15:16:51;5.20;;;1.90;;
29382;SDS011;16365;51.598;7.668;2022-08-02T15:19:23;4.05;;;1.70;;
29382;SDS011;16365;51.598;7.668;2022-08-02T15:22:11;1.83;;;1.52;;
29382;SDS011;16365;51.598;7.668;2022-08-02T15:24:41;5.00;;;2.13;;
29382;SDS011;16365;51.598;7.668;2022-08-02T15:27:08;4.60;;;1.83;;
29382;SDS011;16365;51.598;7.668;2022-08-02T15:29:38;2.58;;;1.88;;
29382;SDS011;16365;51.598;7.668;2022-08-02T15:32:05;3.00;;;1.60;;
29382;SDS011;16365;51.598;7.668;2022-08-02T15:34:32;5.05;;;1.90;;
29382;SDS011;16365;51.598;7.668;2022-08-02T15:36:58;3.40;;;2.28;;
29382;SDS011;16365;51.598;7.668;2022-08-02T15:39:25;4.15;;;1.52;;
29382;SDS011;16365;51.598;7.668;2022-08-02T15:41:51;3.10;;;1.75;;
29382;SDS011;16365;51.598;7.668;2022-08-02T15:44:18;2.45;;;1.73;;
29382;SDS011;16365;51.598;7.668;2022-08-02T15:46:44;5.65;;;1.75;;
29382;SDS011;16365;51.598;7.668;2022-08-02T15:49:14;5.22;;;1.83;;
29382;SDS011;16365;51.598;7.668;2022-08-02T15:51:49;3.35;;;2.00;;
29382;SDS011;16365;51.598;7.668;2022-08-02T15:54:16;3.17;;;1.80;;
29382;SDS011;16365;51.598;7.668;2022-08-02T15:56:43;8.98;;;1.98;;
29382;SDS011;16365;51.598;7.668;2022-08-02T15:59:09;4.68;;;1.90;;